createdAt,value
2018-09-20T00:01:39.243Z,6.80
2018-09-20T00:04:09.181Z,6.50
2018-09-20T00:06:39.205Z,5.50
2018-09-20T00:09:09.371Z,7.10
2018-09-20T00:11:39.373Z,5.97
2018-09-20T00:14:09.342Z,6.27
2018-09-20T00:16:39.285Z,6.43
2018-09-20T00:19:09.320Z,6.10
2018-09-20T00:21:39.247Z,5.83
2018-09-20T00:24:09.167Z,6.00
2018-09-20T00:26:39.121Z,6.40
2018-09-20T00:29:09.234Z,6.43
2018-09-20T00:31:39.219Z,5.53
2018-09-20T00:34:09.191Z,5.97
2018-09-20T00:36:40.176Z,6.30
2018-09-20T00:39:12.857Z,5.33
2018-09-20T00:41:43.306Z,5.70
2018-09-20T00:44:13.202Z,5.43
2018-09-20T00:46:43.140Z,5.80
2018-09-20T00:49:13.182Z,5.50
2018-09-20T00:51:43.111Z,5.53
2018-09-20T00:54:13.064Z,5.20
2018-09-20T00:56:42.980Z,5.57
2018-09-20T00:59:13.151Z,5.60
2018-09-20T01:01:44.137Z,5.70
2018-09-20T01:04:14.355Z,5.73
2018-09-20T01:06:44.262Z,6.33
2018-09-20T01:09:14.265Z,6.10
2018-09-20T01:11:44.208Z,5.27
2018-09-20T01:14:14.210Z,5.93
2018-09-20T01:16:44.227Z,6.90
2018-09-20T01:19:14.136Z,5.90
2018-09-20T01:21:44.083Z,5.50
2018-09-20T01:24:13.988Z,6.37
2018-09-20T01:26:43.857Z,6.30
2018-09-20T01:29:13.812Z,6.03
2018-09-20T01:31:43.742Z,6.20
2018-09-20T01:34:13.662Z,5.57
2018-09-20T01:36:43.594Z,6.67
2018-09-20T01:39:15.219Z,6.10
2018-09-20T01:41:45.178Z,6.50
2018-09-20T01:44:15.135Z,5.70
2018-09-20T01:46:45.432Z,6.00
2018-09-20T01:49:15.415Z,6.33
2018-09-20T01:51:45.393Z,6.27
2018-09-20T01:54:15.395Z,5.13
2018-09-20T01:56:45.349Z,5.60
2018-09-20T01:59:15.345Z,5.10
2018-09-20T02:01:45.339Z,5.20
2018-09-20T02:04:15.272Z,5.63
2018-09-20T02:06:45.312Z,5.93
2018-09-20T02:09:15.343Z,6.47
2018-09-20T02:11:45.327Z,5.73
2018-09-20T02:14:15.310Z,6.33
2018-09-20T02:16:45.257Z,6.43
2018-09-20T02:19:15.197Z,5.50
2018-09-20T02:21:45.122Z,6.33
2018-09-20T02:24:15.098Z,6.37
2018-09-20T02:26:45.066Z,6.40
2018-09-20T02:29:14.964Z,6.33
2018-09-20T02:31:44.959Z,5.90
2018-09-20T02:34:15.503Z,6.00
2018-09-20T02:36:45.438Z,6.10
2018-09-20T02:39:15.422Z,6.23
2018-09-20T02:41:45.431Z,5.80
2018-09-20T02:44:15.407Z,6.20
2018-09-20T02:46:45.372Z,6.00
2018-09-20T02:49:15.389Z,6.43
2018-09-20T02:51:46.614Z,6.10
2018-09-20T02:54:16.558Z,5.50
2018-09-20T02:56:46.502Z,6.03
2018-09-20T02:59:16.478Z,6.27
2018-09-20T03:01:46.438Z,6.37
2018-09-20T03:04:16.425Z,6.47
2018-09-20T03:06:46.402Z,7.00
2018-09-20T03:09:16.351Z,6.23
2018-09-20T03:11:46.531Z,6.47
2018-09-20T03:14:16.496Z,5.53
2018-09-20T03:16:46.454Z,6.50
2018-09-20T03:19:16.412Z,6.50
2018-09-20T03:21:46.401Z,7.57
2018-09-20T03:24:16.302Z,6.70
2018-09-20T03:26:46.290Z,6.20
2018-09-20T03:29:16.326Z,6.27
2018-09-20T03:31:46.671Z,6.50
2018-09-20T03:34:16.655Z,6.30
2018-09-20T03:36:46.571Z,5.93
2018-09-20T03:39:16.511Z,6.13
2018-09-20T03:41:46.473Z,6.37
2018-09-20T03:44:16.495Z,5.60
2018-09-20T03:46:46.447Z,6.20
2018-09-20T03:49:16.398Z,6.27
2018-09-20T03:51:46.371Z,6.97
2018-09-20T03:54:16.304Z,6.07
2018-09-20T03:56:46.287Z,6.30
2018-09-20T03:59:16.298Z,6.87
2018-09-20T04:01:46.204Z,6.47
2018-09-20T04:04:16.157Z,6.73
2018-09-20T04:06:46.074Z,6.70
2018-09-20T04:09:16.019Z,5.90
2018-09-20T04:11:45.962Z,5.77
2018-09-20T04:14:15.885Z,6.00
2018-09-20T04:16:45.904Z,6.73
2018-09-20T04:19:15.837Z,6.43
2018-09-20T04:21:45.823Z,6.50
2018-09-20T04:24:15.791Z,6.33
2018-09-20T04:26:45.787Z,6.87
2018-09-20T04:29:15.765Z,6.43
2018-09-20T04:31:46.175Z,6.80
2018-09-20T04:34:16.037Z,6.70
2018-09-20T04:36:45.978Z,6.63
2018-09-20T04:39:16.918Z,6.00
2018-09-20T04:41:46.933Z,7.27
2018-09-20T04:44:16.844Z,6.63
2018-09-20T04:46:47.090Z,7.23
2018-09-20T04:49:16.976Z,7.63
2018-09-20T04:51:46.870Z,6.67
2018-09-20T04:54:16.803Z,7.07
2018-09-20T04:56:46.734Z,7.90
2018-09-20T04:59:16.788Z,8.57
2018-09-20T05:01:47.256Z,6.90
2018-09-20T05:04:17.178Z,7.70
2018-09-20T05:06:47.123Z,7.78
2018-09-20T05:09:17.095Z,8.80
2018-09-20T05:11:46.997Z,8.43
2018-09-20T05:14:16.954Z,7.80
2018-09-20T05:16:46.968Z,8.03
2018-09-20T05:19:17.007Z,7.93
2018-09-20T05:21:47.351Z,7.37
2018-09-20T05:24:17.361Z,8.27
2018-09-20T05:26:47.257Z,6.67
2018-09-20T05:29:17.218Z,7.03
2018-09-20T05:31:47.213Z,8.30
2018-09-20T05:34:17.138Z,8.57
2018-09-20T05:36:47.172Z,8.20
2018-09-20T05:39:17.135Z,8.30
2018-09-20T05:41:47.094Z,9.70
2018-09-20T05:44:17.060Z,9.50
2018-09-20T05:46:47.040Z,8.40
2018-09-20T05:49:16.941Z,8.77
2018-09-20T05:51:46.982Z,8.90
2018-09-20T05:54:16.915Z,8.90
2018-09-20T05:56:46.822Z,9.57
2018-09-20T05:59:16.987Z,10.03
2018-09-20T06:01:46.925Z,8.40
2018-09-20T06:04:16.934Z,8.20
2018-09-20T06:06:47.049Z,8.07
2018-09-20T06:09:16.977Z,8.60
2018-09-20T06:11:46.955Z,9.40
2018-09-20T06:14:16.950Z,8.47
2018-09-20T06:16:46.972Z,9.33
2018-09-20T06:19:16.942Z,9.20
2018-09-20T06:21:46.930Z,9.90
2018-09-20T06:24:17.143Z,10.03
2018-09-20T06:26:47.070Z,9.30
2018-09-20T06:29:16.966Z,9.03
2018-09-20T06:31:46.865Z,9.33
2018-09-20T06:34:16.829Z,9.03
2018-09-20T06:36:46.784Z,9.20
2018-09-20T06:39:17.244Z,9.47
2018-09-20T06:41:47.137Z,8.20
2018-09-20T06:44:17.098Z,8.60
2018-09-20T06:46:47.048Z,8.10
2018-09-20T06:49:16.965Z,8.13
2018-09-20T06:51:46.907Z,9.07
2018-09-20T06:54:16.854Z,8.63
2018-09-20T06:56:46.920Z,8.40
2018-09-20T06:59:16.879Z,9.10
2018-09-20T07:01:47.061Z,8.70
2018-09-20T07:04:16.985Z,7.90
2018-09-20T07:06:46.958Z,8.37
2018-09-20T07:09:16.913Z,9.20
2018-09-20T07:11:46.879Z,9.17
2018-09-20T07:14:16.806Z,8.00
2018-09-20T07:16:46.739Z,8.00
2018-09-20T07:19:16.756Z,8.43
2018-09-20T07:21:46.650Z,8.40
2018-09-20T07:24:16.586Z,8.70
2018-09-20T07:26:46.509Z,8.85
2018-09-20T07:29:16.465Z,8.13
2018-09-20T07:31:46.799Z,8.77
2018-09-20T07:34:16.823Z,7.92
2018-09-20T07:36:46.843Z,9.10
2018-09-20T07:39:16.799Z,7.90
2018-09-20T07:41:46.762Z,9.13
2018-09-20T07:44:16.690Z,8.60
2018-09-20T07:46:46.723Z,8.13
2018-09-20T07:49:16.667Z,8.17
2018-09-20T07:51:46.955Z,7.80
2018-09-20T07:54:16.919Z,7.97
2018-09-20T07:56:46.900Z,8.47
2018-09-20T07:59:16.850Z,9.30
2018-09-20T08:01:46.917Z,7.20
2018-09-20T08:04:16.804Z,8.50
2018-09-20T08:06:46.742Z,7.53
2018-09-20T08:09:16.633Z,6.50
2018-09-20T08:11:46.547Z,6.73
2018-09-20T08:14:16.696Z,5.90
2018-09-20T08:16:46.691Z,6.90
2018-09-20T08:19:16.652Z,5.87
2018-09-20T08:21:46.583Z,5.70
2018-09-20T08:24:16.898Z,5.33
2018-09-20T08:26:46.862Z,4.83
2018-09-20T08:29:16.782Z,5.00
2018-09-20T08:31:46.799Z,4.77
2018-09-20T08:34:16.705Z,4.60
2018-09-20T08:36:46.749Z,5.03
2018-09-20T08:39:16.634Z,3.60
2018-09-20T08:41:46.881Z,4.20
2018-09-20T08:44:16.774Z,3.30
2018-09-20T08:46:46.793Z,4.87
2018-09-20T08:49:16.802Z,3.60
2018-09-20T08:51:46.796Z,3.13
2018-09-20T08:54:16.727Z,3.10
2018-09-20T08:56:46.762Z,3.40
2018-09-20T08:59:16.742Z,3.50
2018-09-20T09:01:46.688Z,3.30
2018-09-20T09:04:16.658Z,3.30
2018-09-20T09:06:46.587Z,3.80
2018-09-20T09:09:16.592Z,3.30
2018-09-20T09:11:46.599Z,4.40
2018-09-20T09:14:16.994Z,3.80
2018-09-20T09:16:46.927Z,3.57
2018-09-20T09:19:16.984Z,3.70
2018-09-20T09:21:46.890Z,3.47
2018-09-20T09:24:16.887Z,3.70
2018-09-20T09:26:46.832Z,3.53
2018-09-20T09:29:17.396Z,4.17
2018-09-20T09:31:47.399Z,2.80
2018-09-20T09:34:17.335Z,2.90
2018-09-20T09:36:47.258Z,3.10
2018-09-20T09:39:17.244Z,3.60
2018-09-20T09:41:47.251Z,3.35
2018-09-20T09:44:17.162Z,3.23
2018-09-20T09:46:47.221Z,3.30
2018-09-20T09:49:17.211Z,2.70
2018-09-20T09:51:47.194Z,3.67
2018-09-20T09:54:17.244Z,3.30
2018-09-20T09:56:47.338Z,3.60
2018-09-20T09:59:17.323Z,3.33
2018-09-20T10:01:47.561Z,3.40
2018-09-20T10:04:17.497Z,3.07
2018-09-20T10:06:47.443Z,2.60
2018-09-20T10:09:17.365Z,2.53
2018-09-20T10:11:47.380Z,3.00
2018-09-20T10:14:17.591Z,3.17
2018-09-20T10:16:48.077Z,3.00
2018-09-20T10:19:18.050Z,2.87
2018-09-20T10:21:48.038Z,3.00
2018-09-20T10:24:17.941Z,3.13
2018-09-20T10:26:48.072Z,3.87
2018-09-20T10:29:18.083Z,3.70
2018-09-20T10:31:48.040Z,3.57
2018-09-20T10:34:17.973Z,3.40
2018-09-20T10:36:47.903Z,3.70
2018-09-20T10:39:17.898Z,4.23
2018-09-20T10:41:47.855Z,3.40
2018-09-20T10:44:17.773Z,3.00
2018-09-20T10:46:47.770Z,4.03
2018-09-20T10:49:17.766Z,3.13
2018-09-20T10:51:47.780Z,3.70
2018-09-20T10:54:17.758Z,4.20
2018-09-20T10:56:47.674Z,4.50
2018-09-20T10:59:17.656Z,3.43
2018-09-20T11:01:47.595Z,4.10
2018-09-20T11:04:17.596Z,4.07
2018-09-20T11:06:47.656Z,3.80
2018-09-20T11:09:17.650Z,3.20
2018-09-20T11:11:47.632Z,3.50
2018-09-20T11:14:17.564Z,3.70
2018-09-20T11:16:47.517Z,3.57
2018-09-20T11:19:17.430Z,4.20
2018-09-20T11:21:47.417Z,3.43
2018-09-20T11:24:17.354Z,3.93
2018-09-20T11:26:47.318Z,4.07
2018-09-20T11:29:17.309Z,4.17
2018-09-20T11:31:47.257Z,3.77
2018-09-20T11:34:17.240Z,4.50
2018-09-20T11:36:47.570Z,3.50
2018-09-20T11:39:17.538Z,5.07
2018-09-20T11:41:47.474Z,3.80
2018-09-20T11:44:17.444Z,4.37
2018-09-20T11:46:47.550Z,3.67
2018-09-20T11:49:17.489Z,4.33
2018-09-20T11:51:47.583Z,4.20
2018-09-20T11:54:17.595Z,4.10
2018-09-20T11:56:47.556Z,4.10
2018-09-20T11:59:17.515Z,3.87
2018-09-20T12:01:47.573Z,4.03
2018-09-20T12:04:17.543Z,4.43
2018-09-20T12:06:47.471Z,4.13
2018-09-20T12:09:17.459Z,4.90
2018-09-20T12:11:47.445Z,4.70
2018-09-20T12:14:17.410Z,4.60
2018-09-20T12:16:47.349Z,4.70
2018-09-20T12:19:17.245Z,4.07
2018-09-20T12:21:47.226Z,4.67
2018-09-20T12:24:17.329Z,4.40
2018-09-20T12:26:47.232Z,4.97
2018-09-20T12:29:17.158Z,4.70
2018-09-20T12:31:47.146Z,4.40
2018-09-20T12:34:17.176Z,4.47
2018-09-20T12:36:47.154Z,4.60
2018-09-20T12:39:17.067Z,4.67
2018-09-20T12:41:47.165Z,5.20
2018-09-20T12:44:17.135Z,4.80
2018-09-20T12:46:47.350Z,5.60
2018-09-20T12:49:17.297Z,4.70
2018-09-20T12:51:47.226Z,5.67
2018-09-20T12:54:17.247Z,5.20
2018-09-20T12:56:47.173Z,4.90
2018-09-20T12:59:17.382Z,5.10
2018-09-20T13:01:47.335Z,6.13
2018-09-20T13:04:17.291Z,4.90
2018-09-20T13:06:47.264Z,5.17
2018-09-20T13:09:17.173Z,4.40
2018-09-20T13:11:47.112Z,5.03
2018-09-20T13:14:17.100Z,4.83
2018-09-20T13:16:47.050Z,4.97
2018-09-20T13:19:17.043Z,4.10
2018-09-20T13:21:46.982Z,5.40
2018-09-20T13:24:16.954Z,4.50
2018-09-20T13:26:46.912Z,3.70
2018-09-20T13:29:16.879Z,3.40
2018-09-20T13:31:47.032Z,4.50
2018-09-20T13:34:16.953Z,4.50
2018-09-20T13:36:46.902Z,4.20
2018-09-20T13:39:16.925Z,4.57
2018-09-20T13:41:46.930Z,5.20
2018-09-20T13:44:44.568Z,3.70
2018-09-20T13:47:15.357Z,4.83
2018-09-20T13:49:45.318Z,4.03
2018-09-20T13:52:15.297Z,4.73
2018-09-20T13:54:45.310Z,3.50
2018-09-20T13:57:15.335Z,4.67
2018-09-20T13:59:45.325Z,3.73
2018-09-20T14:02:15.359Z,4.40
2018-09-20T14:04:45.294Z,4.17
2018-09-20T14:07:15.201Z,3.87
2018-09-20T14:09:45.138Z,3.70
2018-09-20T14:12:15.059Z,3.93
2018-09-20T14:14:51.477Z,4.63
2018-09-20T14:17:21.439Z,3.83
2018-09-20T14:19:51.385Z,4.10
2018-09-20T14:22:21.286Z,4.40
2018-09-20T14:24:51.361Z,4.07
2018-09-20T14:27:21.275Z,4.67
2018-09-20T14:29:51.282Z,3.80
2018-09-20T14:32:21.183Z,4.90
2018-09-20T14:34:51.163Z,6.53
2018-09-20T14:37:21.086Z,4.33
2018-09-20T14:39:51.088Z,5.60
2018-09-20T14:42:20.977Z,4.80
2018-09-20T14:44:50.912Z,4.67
2018-09-20T14:47:21.046Z,4.17
2018-09-20T14:49:50.946Z,5.40
2018-09-20T14:52:20.908Z,4.27
2018-09-20T14:54:50.807Z,4.57
2018-09-20T14:57:20.813Z,4.17
2018-09-20T14:59:50.827Z,4.67
2018-09-20T15:02:20.822Z,4.00
2018-09-20T15:04:50.873Z,4.40
2018-09-20T15:07:20.780Z,4.87
2018-09-20T15:09:50.716Z,3.87
2018-09-20T15:12:20.692Z,5.30
2018-09-20T15:14:50.600Z,6.20
2018-09-20T15:17:20.480Z,4.37
2018-09-20T15:19:50.362Z,4.10
2018-09-20T15:22:20.248Z,4.40
2018-09-20T15:24:50.252Z,4.40
2018-09-20T15:27:20.154Z,4.13
2018-09-20T15:29:50.053Z,4.23
2018-09-20T15:32:20.075Z,5.50
2018-09-20T15:34:50.098Z,4.00
2018-09-20T15:37:20.028Z,4.03
2018-09-20T15:39:50.056Z,3.73
2018-09-20T15:42:20.182Z,4.60
2018-09-20T15:44:50.854Z,3.60
2018-09-20T15:47:21.049Z,4.07
2018-09-20T15:49:50.951Z,3.80
2018-09-20T15:52:20.951Z,3.50
2018-09-20T15:54:50.898Z,4.23
2018-09-20T15:57:20.843Z,4.43
2018-09-20T15:59:50.786Z,4.30
2018-09-20T16:02:20.688Z,4.20
2018-09-20T16:04:51.728Z,4.60
2018-09-20T16:07:21.756Z,4.10
2018-09-20T16:09:51.679Z,5.20
2018-09-20T16:12:21.652Z,5.63
2018-09-20T16:14:51.591Z,4.30
2018-09-20T16:17:21.581Z,4.37
2018-09-20T16:19:51.513Z,3.20
2018-09-20T16:22:21.471Z,4.60
2018-09-20T16:24:51.423Z,4.37
2018-09-20T16:27:21.529Z,5.17
2018-09-20T16:30:19.479Z,3.83
2018-09-20T16:33:21.885Z,4.60
2018-09-20T16:36:07.968Z,4.07
2018-09-20T16:38:54.317Z,4.40
2018-09-20T16:41:31.940Z,4.40
2018-09-20T16:44:01.891Z,3.53
2018-09-20T16:46:31.948Z,4.10
2018-09-20T16:49:02.001Z,4.40
2018-09-20T16:51:32.037Z,3.87
2018-09-20T16:54:02.016Z,4.10
2018-09-20T16:56:31.989Z,4.43
2018-09-20T16:59:02.036Z,4.70
2018-09-20T17:01:32.091Z,4.50
2018-09-20T17:04:02.240Z,4.50
2018-09-20T17:06:32.224Z,5.30
2018-09-20T17:09:02.220Z,4.43
2018-09-20T17:11:32.168Z,4.20
2018-09-20T17:14:02.195Z,4.40
2018-09-20T17:16:32.238Z,5.20
2018-09-20T17:19:02.213Z,4.30
2018-09-20T17:21:32.430Z,4.97
2018-09-20T17:24:02.428Z,5.00
2018-09-20T17:26:32.421Z,4.47
2018-09-20T17:29:02.416Z,5.10
2018-09-20T17:31:32.387Z,4.50
2018-09-20T17:34:02.333Z,5.00
2018-09-20T17:36:36.740Z,5.10
2018-09-20T17:39:11.718Z,5.60
2018-09-20T17:41:43.395Z,5.43
2018-09-20T17:44:13.391Z,5.60
2018-09-20T17:46:43.368Z,5.13
2018-09-20T17:49:13.423Z,4.90
2018-09-20T17:51:43.803Z,6.30
2018-09-20T17:54:14.413Z,5.23
2018-09-20T17:56:44.902Z,5.93
2018-09-20T17:59:14.883Z,6.97
2018-09-20T18:01:44.864Z,7.37
2018-09-20T18:04:14.899Z,6.60
2018-09-20T18:06:44.952Z,6.33
2018-09-20T18:09:14.864Z,6.50
2018-09-20T18:11:44.835Z,6.73
2018-09-20T18:14:14.748Z,6.63
2018-09-20T18:16:44.711Z,7.77
2018-09-20T18:19:14.630Z,5.83
2018-09-20T18:21:44.704Z,5.90
2018-09-20T18:24:14.726Z,5.90
2018-09-20T18:26:44.644Z,5.33
2018-09-20T18:29:14.678Z,6.70
2018-09-20T18:31:44.567Z,5.60
2018-09-20T18:34:14.650Z,7.27
2018-09-20T18:36:44.515Z,5.70
2018-09-20T18:39:14.858Z,6.10
2018-09-20T18:41:46.019Z,5.73
2018-09-20T18:44:16.054Z,5.45
2018-09-20T18:46:46.055Z,5.70
2018-09-20T18:49:16.072Z,5.13
2018-09-20T18:51:46.272Z,5.90
2018-09-20T18:54:16.236Z,7.17
2018-09-20T18:56:46.339Z,6.90
2018-09-20T18:59:16.303Z,8.07
2018-09-20T19:01:46.911Z,6.87
2018-09-20T19:04:16.945Z,7.63
2018-09-20T19:06:46.927Z,9.23
2018-09-20T19:09:16.903Z,8.30
2018-09-20T19:11:46.943Z,8.50
2018-09-20T19:14:16.957Z,8.63
2018-09-20T19:16:46.924Z,8.83
2018-09-20T19:19:16.855Z,9.13
2018-09-20T19:21:46.905Z,10.03
2018-09-20T19:24:16.914Z,8.60
2018-09-20T19:26:46.888Z,8.90
2018-09-20T19:29:16.824Z,7.87
2018-09-20T19:31:46.903Z,8.77
2018-09-20T19:34:17.415Z,8.63
2018-09-20T19:36:47.452Z,8.33
2018-09-20T19:39:17.435Z,9.00
2018-09-20T19:41:47.449Z,7.73
2018-09-20T19:44:17.523Z,9.57
2018-09-20T19:46:47.572Z,9.10
2018-09-20T19:49:17.517Z,8.90
2018-09-20T19:51:48.136Z,8.67
2018-09-20T19:54:18.183Z,7.10
2018-09-20T19:56:48.192Z,7.60
2018-09-20T19:59:18.300Z,7.10
2018-09-20T20:01:48.295Z,7.70
2018-09-20T20:04:18.297Z,8.70
2018-09-20T20:06:48.185Z,7.70
2018-09-20T20:09:18.214Z,9.70
2018-09-20T20:11:48.237Z,9.60
2018-09-20T20:14:18.200Z,8.73
2018-09-20T20:16:48.314Z,9.77
2018-09-20T20:19:18.305Z,10.13
2018-09-20T20:21:48.301Z,12.27
2018-09-20T20:24:18.291Z,10.57
2018-09-20T20:26:48.355Z,11.73
2018-09-20T20:29:18.366Z,10.30
2018-09-20T20:31:48.326Z,9.97
2018-09-20T20:34:18.387Z,11.53
2018-09-20T20:36:48.395Z,10.67
2018-09-20T20:39:18.444Z,11.80
2018-09-20T20:41:48.503Z,10.77
2018-09-20T20:44:18.600Z,11.20
2018-09-20T20:46:48.720Z,10.60
2018-09-20T20:49:18.700Z,9.50
2018-09-20T20:51:48.805Z,9.17
2018-09-20T20:54:18.916Z,11.43
2018-09-20T20:56:48.966Z,9.63
2018-09-20T20:59:18.907Z,10.10
2018-09-20T21:01:48.896Z,9.03
2018-09-20T21:04:18.869Z,11.20
2018-09-20T21:06:48.827Z,10.63
2018-09-20T21:09:18.890Z,11.37
2018-09-20T21:11:48.959Z,11.43
2018-09-20T21:14:18.916Z,11.97
2018-09-20T21:16:48.984Z,10.93
2018-09-20T21:19:18.999Z,11.13
2018-09-20T21:21:48.986Z,10.47
2018-09-20T21:24:18.976Z,12.03
2018-09-20T21:26:48.894Z,10.87
2018-09-20T21:29:18.904Z,10.83
2018-09-20T21:31:48.880Z,11.77
2018-09-20T21:34:18.951Z,11.70
2018-09-20T21:36:48.943Z,12.63
2018-09-20T21:39:18.979Z,11.47
2018-09-20T21:41:48.943Z,12.00
2018-09-20T21:44:18.926Z,10.23
2018-09-20T21:46:48.908Z,9.33
2018-09-20T21:49:19.150Z,11.30
2018-09-20T21:51:49.103Z,10.70
2018-09-20T21:54:19.133Z,10.97
2018-09-20T21:56:49.105Z,12.27
2018-09-20T21:59:19.184Z,11.73
2018-09-20T22:01:54.513Z,11.80
2018-09-20T22:04:24.589Z,12.10
2018-09-20T22:06:54.541Z,11.93
2018-09-20T22:09:24.529Z,11.40
2018-09-20T22:11:54.579Z,12.07
2018-09-20T22:14:24.800Z,11.20
2018-09-20T22:16:54.964Z,10.63
2018-09-20T22:19:24.871Z,10.57
2018-09-20T22:21:54.839Z,11.53
2018-09-20T22:24:24.843Z,10.07
2018-09-20T22:27:34.750Z,10.13
2018-09-20T22:30:04.874Z,10.70
2018-09-20T22:32:35.020Z,11.40
2018-09-20T22:35:05.508Z,11.70
2018-09-20T22:37:35.797Z,10.60
2018-09-20T22:40:06.144Z,11.60
2018-09-20T22:42:36.246Z,10.70
2018-09-20T22:45:06.412Z,10.97
2018-09-20T22:47:36.374Z,11.23
2018-09-20T22:50:06.513Z,10.70
2018-09-20T22:52:36.652Z,11.03
2018-09-20T22:55:06.773Z,12.27
2018-09-20T22:57:36.786Z,12.10
2018-09-20T23:00:06.942Z,13.13
2018-09-20T23:02:37.034Z,12.20
2018-09-20T23:05:07.063Z,12.73
2018-09-20T23:07:37.083Z,11.70
2018-09-20T23:10:07.169Z,11.53
2018-09-20T23:12:37.232Z,12.23
2018-09-20T23:15:07.547Z,10.70
2018-09-20T23:17:37.834Z,11.30
2018-09-20T23:20:07.916Z,10.70
2018-09-20T23:22:37.962Z,10.30
2018-09-20T23:25:08.015Z,10.50
2018-09-20T23:27:37.988Z,11.30
2018-09-20T23:30:08.015Z,11.00
2018-09-20T23:32:37.967Z,10.50
2018-09-20T23:35:08.119Z,10.10
2018-09-20T23:37:38.083Z,11.03
2018-09-20T23:40:08.118Z,10.77
2018-09-20T23:42:38.147Z,11.80
2018-09-20T23:45:08.206Z,11.30
2018-09-20T23:47:38.195Z,12.00
2018-09-20T23:50:08.283Z,11.70
2018-09-20T23:52:39.349Z,11.30
2018-09-20T23:55:09.344Z,12.17
2018-09-20T23:57:39.427Z,11.37
